Time;durP1;ratioP1;P1;durP2;ratioP2;P2;SDS_P1;SDS_P2;PMS_P1;PMS_P2;Temp;Humidity;BMP_temperature;BMP_pressure;BME280_temperature;BME280_humidity;BME280_pressure;Samples;Min_cycle;Max_cycle;Signal;HPM_P1;HPM_P2
2022/06/04 00:02:07;;;;;;;7.60;6.70;;;13.50;99.90;;;;;;5109139;27;20131;-75
2022/06/04 00:04:34;;;;;;;8.68;6.60;;;13.40;99.90;;;;;;5098037;28;20124;-75
2022/06/04 00:07:01;;;;;;;11.45;6.93;;;13.40;99.90;;;;;;5092308;28;20048;-75
2022/06/04 00:09:29;;;;;;;6.65;5.93;;;13.30;99.90;;;;;;5101863;28;20142;-76
2022/06/04 00:17:23;;;;;;;9.10;6.15;;;13.10;99.90;;;;;;5048638;28;20040;-76
2022/06/04 00:19:51;;;;;;;6.13;5.53;;;13.10;99.90;;;;;;5087240;28;20036;-76
2022/06/04 00:22:18;;;;;;;7.35;6.32;;;13.10;99.90;;;;;;5089779;28;20046;-76
2022/06/04 00:24:46;;;;;;;7.88;6.13;;;13.10;99.90;;;;;;5088582;28;20117;-76
2022/06/04 00:27:20;;;;;;;7.35;6.38;;;13.10;99.90;;;;;;5089417;28;20051;-76
2022/06/04 00:29:48;;;;;;;6.97;5.82;;;13.00;99.90;;;;;;5088673;28;20131;-77
2022/06/04 00:32:16;;;;;;;8.13;6.00;;;13.00;99.90;;;;;;5090816;28;20135;-76
2022/06/04 00:34:43;;;;;;;10.25;7.15;;;13.00;99.90;;;;;;5103524;28;20062;-76
2022/06/04 00:37:10;;;;;;;9.77;6.68;;;13.00;99.90;;;;;;5091983;28;20529;-76
2022/06/04 00:39:38;;;;;;;12.65;7.07;;;12.90;99.90;;;;;;5089111;28;20044;-76
2022/06/04 00:42:10;;;;;;;11.35;6.82;;;12.90;99.90;;;;;;5089711;28;20046;-76
2022/06/04 00:45:14;;;;;;;8.07;7.32;;;12.90;99.90;;;;;;5100680;28;20487;-76
2022/06/04 00:47:42;;;;;;;9.10;7.35;;;12.80;99.90;;;;;;5100033;28;20531;-75
2022/06/04 00:50:11;;;;;;;8.30;7.00;;;12.80;99.90;;;;;;5096033;28;20058;-75
2022/06/04 00:52:40;;;;;;;11.98;7.10;;;12.70;99.90;;;;;;5098979;28;20396;-76
2022/06/04 00:55:09;;;;;;;14.85;8.75;;;12.70;99.90;;;;;;5100387;28;20048;-76
2022/06/04 00:58:05;;;;;;;17.38;8.05;;;12.70;99.90;;;;;;5097976;28;20810;-76
2022/06/04 01:00:36;;;;;;;11.50;7.75;;;12.70;99.90;;;;;;5089909;28;20052;-75
2022/06/04 01:03:30;;;;;;;18.02;8.75;;;12.60;99.90;;;;;;5089557;28;20105;-75
2022/06/04 01:06:07;;;;;;;18.75;9.90;;;12.60;99.90;;;;;;5101839;28;20573;-75
2022/06/04 01:09:05;;;;;;;40.80;10.50;;;12.60;99.90;;;;;;5091242;28;20075;-75
2022/06/04 01:12:09;;;;;;;40.95;11.40;;;12.50;99.90;;;;;;5088836;28;20149;-75
2022/06/04 01:14:35;;;;;;;42.28;11.50;;;12.50;99.90;;;;;;5088435;28;20530;-75
2022/06/04 01:17:06;;;;;;;;;;;12.60;99.90;;;;;;5106102;28;20055;-74
2022/06/04 01:19:53;;;;;;;38.85;11.73;;;12.70;99.90;;;;;;5095083;28;20085;-73
2022/06/04 01:22:45;;;;;;;47.83;11.98;;;12.80;99.90;;;;;;5095391;28;20043;-73
2022/06/04 01:25:29;;;;;;;43.00;9.85;;;12.70;99.90;;;;;;5092179;28;20052;-73
2022/06/04 01:28:01;;;;;;;51.47;10.13;;;12.70;99.90;;;;;;5092389;28;20393;-74
2022/06/04 01:30:35;;;;;;;38.70;9.75;;;12.70;99.90;;;;;;5093756;28;20063;-73
2022/06/04 01:33:08;;;;;;;33.53;9.68;;;12.70;99.90;;;;;;5090371;28;20047;-73
2022/06/04 01:35:44;;;;;;;31.15;9.63;;;12.80;99.90;;;;;;5102193;28;20063;-73
2022/06/04 01:38:15;;;;;;;27.75;8.70;;;12.80;99.90;;;;;;5084077;28;20099;-74
2022/06/04 01:41:04;;;;;;;36.72;10.40;;;12.90;99.90;;;;;;5078022;28;20051;-75
2022/06/04 01:43:38;;;;;;;37.20;12.27;;;12.90;99.90;;;;;;5092336;28;20136;-75
2022/06/04 01:46:12;;;;;;;32.40;10.55;;;13.00;99.90;;;;;;5098080;28;20507;-75
2022/06/04 01:48:42;;;;;;;32.55;9.57;;;13.10;99.90;;;;;;5110137;28;20048;-75
2022/06/04 01:51:11;;;;;;;22.77;8.02;;;13.20;99.90;;;;;;5111826;28;20101;-75
2022/06/04 01:53:41;;;;;;;23.05;8.32;;;13.30;99.90;;;;;;5094208;28;20135;-75
2022/06/04 01:56:12;;;;;;;20.35;7.47;;;13.30;99.90;;;;;;5092921;28;20138;-74
2022/06/04 01:58:46;;;;;;;14.55;7.07;;;13.40;99.90;;;;;;5110978;28;20051;-75
2022/06/04 02:01:20;;;;;;;13.45;7.30;;;13.40;99.90;;;;;;5111195;28;20101;-75
2022/06/04 02:03:54;;;;;;;11.40;7.25;;;13.40;99.90;;;;;;5096352;28;20051;-75
2022/06/04 02:06:23;;;;;;;10.18;6.28;;;13.40;99.90;;;;;;5098684;28;20139;-75
2022/06/04 02:08:54;;;;;;;11.95;6.82;;;13.40;99.90;;;;;;5091704;28;20055;-76
2022/06/04 02:11:24;;;;;;;7.38;5.72;;;13.50;99.90;;;;;;5092668;28;20040;-75
2022/06/04 02:13:55;;;;;;;8.68;6.03;;;13.50;99.90;;;;;;5090864;28;20066;-75
2022/06/04 02:16:29;;;;;;;8.55;5.75;;;13.60;99.90;;;;;;5098468;28;20040;-75
2022/06/04 02:18:58;;;;;;;6.68;5.55;;;13.60;99.90;;;;;;5112733;28;20054;-75
2022/06/04 02:21:27;;;;;;;12.77;5.45;;;13.60;99.90;;;;;;5097337;28;20085;-75
2022/06/04 02:23:55;;;;;;;8.55;5.53;;;13.60;99.90;;;;;;5107198;28;20036;-75
2022/06/04 02:26:24;;;;;;;8.15;5.50;;;13.60;99.90;;;;;;5108148;28;20147;-75
2022/06/04 02:28:54;;;;;;;12.02;6.07;;;13.60;99.90;;;;;;5091099;28;20511;-75
2022/06/04 02:31:29;;;;;;;11.45;5.40;;;13.60;99.90;;;;;;5113842;28;20105;-74
2022/06/04 02:34:03;;;;;;;8.45;5.63;;;13.60;99.90;;;;;;5098664;28;20646;-75
2022/06/04 02:36:36;;;;;;;11.95;5.20;;;13.60;99.90;;;;;;5105305;28;20142;-74
2022/06/04 02:39:11;;;;;;;10.52;5.65;;;13.60;99.90;;;;;;5091985;28;20040;-75
2022/06/04 02:41:42;;;;;;;9.30;5.30;;;13.50;99.90;;;;;;5092489;28;20048;-75
2022/06/04 02:44:20;;;;;;;5.82;5.03;;;13.60;99.90;;;;;;5092650;28;20054;-75
2022/06/04 02:46:54;;;;;;;6.40;5.07;;;13.50;99.90;;;;;;5099176;28;20048;-75
2022/06/04 02:49:29;;;;;;;7.72;5.25;;;13.60;99.90;;;;;;5107726;28;20058;-75
2022/06/04 02:51:58;;;;;;;7.05;4.38;;;13.60;99.90;;;;;;5097034;28;20044;-75
2022/06/04 02:54:30;;;;;;;5.82;4.90;;;13.60;99.90;;;;;;5091929;28;20050;-75
2022/06/04 02:56:59;;;;;;;6.75;4.85;;;13.60;99.90;;;;;;5081786;28;20048;-74
2022/06/04 02:59:30;;;;;;;6.53;5.47;;;13.60;99.90;;;;;;5108506;28;20461;-75
2022/06/04 03:02:01;;;;;;;9.88;5.70;;;13.60;99.90;;;;;;5073603;28;20052;-75
2022/06/04 03:04:28;;;;;;;6.35;5.75;;;13.60;99.90;;;;;;5098288;28;20467;-74
2022/06/04 03:07:05;;;;;;;6.13;4.85;;;13.50;99.90;;;;;;5109072;28;20538;-74
2022/06/04 03:09:32;;;;;;;8.88;5.15;;;13.60;99.90;;;;;;5089006;28;20040;-75
2022/06/04 03:11:59;;;;;;;8.07;6.05;;;13.60;99.90;;;;;;5096464;28;20464;-75
2022/06/04 03:14:28;;;;;;;8.02;5.60;;;13.60;99.90;;;;;;5100208;28;20052;-75
2022/06/04 03:16:55;;;;;;;10.23;5.80;;;13.60;99.90;;;;;;5107482;28;20048;-75
2022/06/04 03:19:23;;;;;;;10.23;6.13;;;13.60;99.90;;;;;;5073780;28;20461;-74
2022/06/04 03:21:50;;;;;;;6.68;5.53;;;13.60;99.90;;;;;;5110176;28;20063;-75
2022/06/04 03:24:17;;;;;;;9.55;5.57;;;13.60;99.90;;;;;;5097799;28;20079;-76
2022/06/04 03:26:44;;;;;;;7.43;5.80;;;13.50;99.90;;;;;;5089840;28;20100;-75
2022/06/04 03:29:12;;;;;;;7.75;5.80;;;13.50;99.90;;;;;;5078807;28;20446;-75
2022/06/04 03:31:40;;;;;;;9.80;5.30;;;13.50;99.90;;;;;;5107846;28;20043;-77
2022/06/04 03:34:07;;;;;;;6.60;4.97;;;13.50;99.90;;;;;;5089445;28;20447;-75
2022/06/04 03:36:37;;;;;;;7.85;5.53;;;13.60;99.90;;;;;;5097238;28;20047;-76
2022/06/04 03:39:06;;;;;;;6.53;5.93;;;13.60;99.90;;;;;;5101939;28;20087;-75
2022/06/04 03:41:33;;;;;;;14.23;5.00;;;13.50;99.90;;;;;;5098713;28;20143;-75
2022/06/04 03:44:00;;;;;;;8.13;4.88;;;13.50;99.90;;;;;;5104547;28;20110;-75
2022/06/04 03:46:28;;;;;;;8.70;5.53;;;13.40;99.90;;;;;;5108374;28;20040;-75
2022/06/04 03:48:58;;;;;;;5.53;4.95;;;13.40;99.90;;;;;;5102795;28;20457;-75
2022/06/04 03:51:27;;;;;;;7.18;4.80;;;13.40;99.90;;;;;;5094814;28;20645;-75
2022/06/04 03:53:55;;;;;;;8.48;5.15;;;13.50;99.90;;;;;;5090043;28;21234;-75
2022/06/04 03:56:22;;;;;;;5.50;4.95;;;13.50;99.90;;;;;;5091940;28;20058;-75
2022/06/04 03:58:50;;;;;;;10.52;5.53;;;13.60;99.90;;;;;;5093659;28;20515;-75
2022/06/04 04:01:20;;;;;;;6.18;4.75;;;13.60;99.90;;;;;;5098174;28;20052;-75
2022/06/04 04:03:47;;;;;;;5.25;4.75;;;13.70;99.90;;;;;;5111253;28;20100;-76
2022/06/04 04:06:22;;;;;;;9.15;5.20;;;13.70;99.90;;;;;;5100129;28;20056;-77
2022/06/04 04:08:50;;;;;;;7.63;5.18;;;13.80;99.90;;;;;;5104264;28;20055;-76
2022/06/04 04:11:20;;;;;;;7.63;5.53;;;13.80;99.90;;;;;;5108342;28;20055;-76
2022/06/04 04:13:48;;;;;;;7.68;5.45;;;13.80;99.90;;;;;;5073909;28;20066;-76
2022/06/04 04:16:16;;;;;;;7.43;4.90;;;13.90;99.90;;;;;;5093315;28;20151;-75
2022/06/04 04:18:44;;;;;;;6.43;5.50;;;13.90;99.90;;;;;;5099233;28;20056;-76
2022/06/04 04:21:13;;;;;;;7.20;5.85;;;13.80;99.90;;;;;;5093687;28;20071;-76
2022/06/04 04:23:42;;;;;;;6.93;5.07;;;13.80;99.90;;;;;;5091772;28;20044;-76
2022/06/04 04:26:11;;;;;;;9.52;5.72;;;13.90;99.90;;;;;;5089121;28;20449;-76
2022/06/04 04:28:39;;;;;;;6.40;5.43;;;13.90;99.90;;;;;;5102461;28;20057;-77
2022/06/04 04:31:12;;;;;;;7.78;5.90;;;13.90;99.90;;;;;;5110516;28;20100;-77
2022/06/04 04:33:39;;;;;;;6.60;5.32;;;13.90;99.90;;;;;;5107548;28;20104;-77
2022/06/04 04:36:07;;;;;;;7.05;5.85;;;13.80;99.90;;;;;;5087303;28;20056;-75
2022/06/04 04:38:35;;;;;;;6.80;5.82;;;13.80;99.90;;;;;;5090065;28;20502;-75
2022/06/04 04:41:08;;;;;;;9.88;5.68;;;13.80;99.90;;;;;;5104033;28;20078;-75
2022/06/04 04:43:35;;;;;;;6.45;5.55;;;13.70;99.90;;;;;;5095703;28;20438;-75
2022/06/04 04:46:03;;;;;;;8.43;6.28;;;13.80;99.90;;;;;;5098269;28;20101;-75
2022/06/04 04:48:30;;;;;;;10.43;6.28;;;13.80;99.90;;;;;;5109413;28;20126;-76
2022/06/04 04:50:58;;;;;;;7.88;6.95;;;13.80;99.90;;;;;;5092396;28;20047;-75
2022/06/04 04:53:25;;;;;;;12.57;6.50;;;13.80;99.90;;;;;;5079593;28;20101;-75
2022/06/04 04:55:52;;;;;;;11.60;6.85;;;13.80;99.90;;;;;;5089971;28;20051;-75
2022/06/04 04:58:21;;;;;;;9.15;6.95;;;13.90;99.90;;;;;;5105943;28;20043;-75
2022/06/04 05:00:48;;;;;;;7.55;6.13;;;13.90;99.90;;;;;;5107298;28;20094;-76
2022/06/04 05:03:15;;;;;;;8.57;6.70;;;13.90;99.90;;;;;;5092085;28;20056;-75
2022/06/04 05:05:42;;;;;;;7.72;5.72;;;13.80;99.90;;;;;;5089881;28;20126;-74
2022/06/04 05:08:10;;;;;;;7.90;6.97;;;13.80;99.90;;;;;;5105180;28;20069;-76
2022/06/04 05:10:39;;;;;;;8.18;6.22;;;13.80;99.90;;;;;;5102055;28;20044;-76
2022/06/04 05:13:07;;;;;;;9.93;6.00;;;13.80;99.90;;;;;;5093944;28;20048;-78
2022/06/04 05:15:36;;;;;;;16.45;6.80;;;13.80;99.90;;;;;;5080327;28;20059;-77
2022/06/04 05:18:04;;;;;;;9.05;6.57;;;13.80;99.90;;;;;;5100059;28;20059;-77
2022/06/04 05:20:31;;;;;;;8.20;6.60;;;13.80;99.90;;;;;;5092068;28;21972;-78
2022/06/04 05:22:58;;;;;;;10.48;6.78;;;13.70;99.90;;;;;;5099096;28;20105;-75
2022/06/04 05:25:26;;;;;;;10.18;7.55;;;13.80;99.90;;;;;;5095523;28;20044;-74
2022/06/04 05:27:53;;;;;;;11.98;6.75;;;13.90;99.90;;;;;;5095696;28;20119;-74
2022/06/04 05:30:20;;;;;;;13.02;7.70;;;14.10;99.90;;;;;;5096138;28;20131;-75
2022/06/04 05:32:48;;;;;;;26.90;7.70;;;14.20;99.90;;;;;;5097593;28;20052;-73
2022/06/04 05:35:16;;;;;;;21.58;7.05;;;14.20;99.90;;;;;;5094578;28;20052;-77
2022/06/04 05:37:43;;;;;;;8.10;6.20;;;14.20;99.90;;;;;;5099784;28;20139;-76
2022/06/04 05:40:10;;;;;;;6.78;5.95;;;14.10;99.90;;;;;;5086523;28;20421;-76
2022/06/04 05:42:38;;;;;;;7.68;5.85;;;14.10;99.90;;;;;;5088483;28;20076;-76
2022/06/04 05:45:06;;;;;;;11.55;6.40;;;14.00;99.90;;;;;;5080319;28;20511;-77
2022/06/04 05:47:34;;;;;;;13.25;7.03;;;13.90;99.90;;;;;;5087190;28;20090;-75
2022/06/04 05:50:02;;;;;;;17.15;8.23;;;13.80;99.90;;;;;;5107947;28;20051;-75
2022/06/04 05:52:30;;;;;;;18.95;7.50;;;13.70;99.90;;;;;;5103483;28;20040;-74
2022/06/04 05:54:57;;;;;;;12.38;8.05;;;13.80;99.90;;;;;;5099382;28;20044;-74
2022/06/04 05:57:25;;;;;;;13.18;9.15;;;13.90;99.90;;;;;;5102396;28;20036;-75
2022/06/04 05:59:53;;;;;;;10.75;8.23;;;14.00;99.90;;;;;;5090953;28;20044;-77
2022/06/04 06:02:20;;;;;;;11.95;8.73;;;14.00;99.90;;;;;;5099045;28;20282;-77
2022/06/04 06:04:47;;;;;;;12.75;8.52;;;13.90;99.90;;;;;;5099784;28;20036;-74
2022/06/04 06:07:16;;;;;;;15.60;8.73;;;14.00;99.90;;;;;;5092342;28;20548;-74
2022/06/04 06:09:44;;;;;;;25.80;8.23;;;14.10;99.90;;;;;;5098815;28;20048;-74
2022/06/04 06:12:12;;;;;;;31.65;8.45;;;14.40;99.90;;;;;;5091111;28;20059;-76
2022/06/04 06:14:39;;;;;;;27.38;8.05;;;14.70;99.90;;;;;;5099564;28;20039;-76
2022/06/04 06:17:07;;;;;;;23.33;7.65;;;14.90;99.90;;;;;;5100662;28;20497;-77
2022/06/04 06:19:34;;;;;;;26.17;8.77;;;15.00;99.90;;;;;;5111219;28;20207;-76
2022/06/04 06:22:02;;;;;;;20.85;8.40;;;15.00;99.90;;;;;;5096355;28;20048;-74
2022/06/04 06:24:30;;;;;;;17.75;7.85;;;15.00;99.90;;;;;;5097766;28;20043;-76
2022/06/04 06:27:00;;;;;;;12.32;7.28;;;14.90;99.90;;;;;;5096357;28;20442;-75
2022/06/04 06:29:30;;;;;;;25.13;8.52;;;14.90;99.90;;;;;;5095902;28;20051;-75
2022/06/04 06:32:00;;;;;;;14.57;7.60;;;15.00;99.90;;;;;;5099521;28;20058;-74
2022/06/04 06:34:27;;;;;;;17.15;7.93;;;15.10;99.90;;;;;;5093764;28;20044;-74
2022/06/04 06:36:56;;;;;;;9.52;6.55;;;15.10;99.90;;;;;;5104782;28;20130;-74
2022/06/04 06:39:24;;;;;;;14.27;7.13;;;15.20;99.90;;;;;;5103482;28;20043;-75
2022/06/04 06:41:52;;;;;;;7.90;7.07;;;15.20;99.90;;;;;;5096496;28;20078;-75
2022/06/04 06:44:29;;;;;;;10.07;6.50;;;15.30;99.90;;;;;;5091058;28;20534;-74
2022/06/04 06:46:57;;;;;;;7.20;6.45;;;15.40;99.90;;;;;;5094309;28;20112;-74
2022/06/04 06:49:27;;;;;;;8.73;6.38;;;15.30;99.90;;;;;;5102324;28;20055;-75
2022/06/04 06:51:56;;;;;;;8.10;6.43;;;15.20;99.90;;;;;;5092452;28;20044;-74
2022/06/04 06:54:26;;;;;;;10.95;7.13;;;15.30;99.90;;;;;;5084877;28;20332;-75
2022/06/04 06:56:56;;;;;;;12.43;7.53;;;15.40;99.90;;;;;;5101857;28;20055;-75
2022/06/04 06:59:25;;;;;;;11.65;7.22;;;15.60;99.90;;;;;;5104772;28;20113;-75
2022/06/04 07:01:54;;;;;;;14.55;7.13;;;16.10;99.90;;;;;;5094838;28;20048;-75
2022/06/04 07:04:22;;;;;;;21.38;7.85;;;16.60;99.90;;;;;;5094784;28;20056;-75
2022/06/04 07:06:51;;;;;;;11.70;6.93;;;17.20;99.90;;;;;;5104540;28;20520;-76
2022/06/04 07:09:21;;;;;;;12.68;7.05;;;17.50;99.90;;;;;;5109765;28;20058;-76
2022/06/04 07:11:48;;;;;;;8.05;6.80;;;17.70;99.90;;;;;;5101403;28;20048;-76
2022/06/04 07:14:18;;;;;;;7.30;6.40;;;17.70;99.90;;;;;;5097398;27;20039;-77
2022/06/04 07:16:46;;;;;;;6.55;5.88;;;17.60;99.90;;;;;;5110266;28;20134;-77
2022/06/04 07:19:16;;;;;;;6.82;6.22;;;17.40;99.90;;;;;;5099043;28;20044;-77
2022/06/04 07:21:44;;;;;;;8.68;5.85;;;17.20;99.90;;;;;;5096761;28;20052;-77
2022/06/04 07:24:12;;;;;;;6.90;6.20;;;16.90;99.90;;;;;;5112181;28;20094;-76
2022/06/04 07:26:40;;;;;;;7.03;5.93;;;16.60;99.90;;;;;;5105663;28;20052;-77
2022/06/04 07:29:12;;;;;;;11.38;7.00;;;16.40;99.90;;;;;;5072832;28;20063;-75
2022/06/04 07:31:40;;;;;;;20.65;7.53;;;16.40;99.90;;;;;;5100772;28;20147;-74
2022/06/04 07:34:08;;;;;;;19.75;7.13;;;16.40;99.90;;;;;;5099818;28;20671;-74
2022/06/04 07:36:39;;;;;;;7.88;6.07;;;16.50;99.90;;;;;;5092519;28;20534;-75
2022/06/04 07:39:09;;;;;;;22.42;7.50;;;17.60;99.90;;;;;;5094713;28;20479;-75
2022/06/04 07:41:38;;;;;;;13.90;6.40;;;18.80;99.90;;;;;;5093973;28;20180;-74
2022/06/04 07:44:07;;;;;;;16.80;7.30;;;19.10;99.90;;;;;;5077839;28;20115;-75
2022/06/04 07:46:34;;;;;;;17.90;6.93;;;19.80;99.90;;;;;;5101182;28;20138;-75
2022/06/04 07:49:05;;;;;;;17.15;6.82;;;20.90;99.90;;;;;;5094144;28;20396;-75
2022/06/04 07:51:34;;;;;;;15.23;7.88;;;21.20;99.90;;;;;;5088424;28;20142;-75
2022/06/04 07:54:01;;;;;;;12.88;6.57;;;20.80;99.90;;;;;;5069728;28;20082;-78
2022/06/04 07:56:29;;;;;;;5.97;5.47;;;20.70;99.90;;;;;;5089802;28;20070;-78
2022/06/04 07:58:56;;;;;;;6.95;6.03;;;20.40;99.90;;;;;;5087769;28;20044;-77
2022/06/04 08:01:24;;;;;;;7.13;5.45;;;20.10;99.90;;;;;;5086547;28;20044;-77
2022/06/04 08:03:53;;;;;;;6.28;5.72;;;19.90;99.90;;;;;;5097842;28;20036;-74
2022/06/04 08:06:23;;;;;;;7.75;6.00;;;19.30;99.90;;;;;;5094416;28;20484;-73
2022/06/04 08:08:54;;;;;;;6.53;5.30;;;18.70;99.90;;;;;;5078075;28;20039;-74
2022/06/04 08:11:35;;;;;;;6.07;5.57;;;18.30;99.90;;;;;;5095283;28;20044;-75
2022/06/04 08:14:08;;;;;;;6.43;5.82;;;18.10;99.90;;;;;;5097452;28;20170;-73
2022/06/04 08:16:37;;;;;;;6.55;5.60;;;18.30;99.90;;;;;;5089626;28;20530;-73
2022/06/04 08:19:05;;;;;;;9.73;5.60;;;18.60;99.90;;;;;;5096118;28;20039;-74
2022/06/04 08:21:35;;;;;;;6.90;5.72;;;18.70;99.90;;;;;;5098498;28;20044;-78
2022/06/04 08:24:03;;;;;;;7.22;6.53;;;18.70;99.90;;;;;;5098798;28;20047;-76
2022/06/04 08:26:31;;;;;;;8.20;6.22;;;18.80;99.90;;;;;;5098368;28;20088;-77
2022/06/04 08:28:58;;;;;;;8.60;7.32;;;19.10;99.90;;;;;;5099204;28;20131;-78
2022/06/04 08:31:26;;;;;;;9.70;6.40;;;19.20;99.90;;;;;;5097726;28;20040;-80
2022/06/04 08:33:53;;;;;;;6.32;5.72;;;19.40;99.90;;;;;;5101164;28;20051;-78
2022/06/04 08:36:20;;;;;;;6.60;6.07;;;20.50;99.90;;;;;;5078213;28;20581;-80
2022/06/04 08:38:48;;;;;;;6.93;6.40;;;22.20;99.90;;;;;;5090303;28;20042;-77
2022/06/04 08:41:26;;;;;;;9.00;8.05;;;23.90;98.60;;;;;;5098925;28;20496;-75
2022/06/04 08:44:00;;;;;;;7.65;6.00;;;24.20;92.60;;;;;;5093094;28;20043;-76
2022/06/04 08:46:32;;;;;;;6.55;6.05;;;23.80;88.70;;;;;;5093404;28;20047;-76
2022/06/04 08:49:05;;;;;;;7.25;6.45;;;23.10;90.70;;;;;;5099379;28;20058;-74
2022/06/04 08:51:33;;;;;;;8.73;6.38;;;22.80;94.00;;;;;;5096326;28;20052;-77
2022/06/04 08:57:32;;;;;;;8.00;7.20;;;23.90;95.50;;;;;;5096976;28;20039;-72
2022/06/04 08:59:49;;;;;;;6.78;6.07;;;26.00;89.70;;;;;;5094629;28;20176;-74
2022/06/04 09:02:21;;;;;;;7.03;5.78;;;27.50;76.50;;;;;;5096886;28;20503;-75
2022/06/04 09:04:52;;;;;;;;;;;27.20;69.80;;;;;;5101808;28;20144;-73
2022/06/04 09:07:24;;;;;;;5.72;5.25;;;26.50;70.70;;;;;;5097131;28;19924;-73
2022/06/04 09:09:57;;;;;;;5.68;5.25;;;25.50;71.50;;;;;;5090956;28;20048;-73
2022/06/04 09:12:38;;;;;;;6.30;5.90;;;24.20;74.30;;;;;;5096318;28;20040;-72
2022/06/04 09:15:12;;;;;;;6.45;5.95;;;23.60;77.90;;;;;;5097136;28;20075;-74
2022/06/04 09:17:43;;;;;;;7.25;5.97;;;23.50;80.80;;;;;;5100174;28;20308;-73
2022/06/04 09:20:26;;;;;;;6.28;5.20;;;23.00;81.20;;;;;;5097770;28;20531;-75
2022/06/04 09:23:02;;;;;;;7.78;5.18;;;23.10;83.30;;;;;;5092541;28;20467;-72
2022/06/04 09:25:41;;;;;;;9.80;5.22;;;23.00;80.40;;;;;;5089254;28;20055;-73
2022/06/04 09:28:17;;;;;;;8.10;5.32;;;22.60;82.70;;;;;;5097080;28;20431;-73
2022/06/04 09:30:59;;;;;;;11.90;10.18;;;22.50;83.80;;;;;;5090512;28;20450;-72
2022/06/04 09:33:43;;;;;;;8.40;5.47;;;23.50;81.70;;;;;;5087771;28;20047;-73
2022/06/04 09:36:12;;;;;;;6.57;5.95;;;25.10;73.90;;;;;;5101423;28;20058;-72
2022/06/04 09:38:51;;;;;;;5.55;5.05;;;25.50;70.40;;;;;;5090778;28;20050;-73
2022/06/04 09:41:23;;;;;;;8.27;5.18;;;26.10;70.10;;;;;;5095478;28;20051;-72
2022/06/04 09:44:00;;;;;;;8.23;4.38;;;25.70;68.70;;;;;;5097407;28;20143;-72
2022/06/04 09:46:28;;;;;;;4.38;3.95;;;26.40;64.40;;;;;;5094887;28;20058;-73
2022/06/04 09:48:58;;;;;;;4.57;4.18;;;27.30;63.60;;;;;;5091975;28;20149;-73
2022/06/04 09:51:28;;;;;;;5.07;4.60;;;28.10;61.70;;;;;;5094401;28;20151;-74
2022/06/04 09:54:02;;;;;;;5.15;4.75;;;29.00;59.50;;;;;;5104667;28;20717;-74
2022/06/04 09:56:35;;;;;;;6.13;5.32;;;29.10;56.90;;;;;;5093451;28;20558;-72
2022/06/04 09:59:18;;;;;;;4.95;4.22;;;28.30;59.70;;;;;;5103004;28;20656;-73
2022/06/04 10:01:54;;;;;;;4.32;3.22;;;28.60;56.90;;;;;;5101653;28;20048;-80
2022/06/04 10:04:23;;;;;;;4.90;3.72;;;28.60;56.00;;;;;;5112655;28;20047;-76
2022/06/04 10:06:51;;;;;;;4.43;4.03;;;27.60;56.70;;;;;;5094684;28;20043;-78
2022/06/04 10:12:15;;;;;;;5.43;5.03;;;25.60;64.80;;;;;;5041167;28;20213;-76
2022/06/04 10:14:45;;;;;;;4.72;4.32;;;25.20;65.30;;;;;;5044928;28;20048;-77
2022/06/04 10:17:19;;;;;;;5.75;4.45;;;24.30;66.50;;;;;;5041444;28;20061;-74
2022/06/04 10:19:51;;;;;;;4.60;4.30;;;23.50;69.00;;;;;;5042612;28;20480;-74
2022/06/04 10:22:19;;;;;;;7.22;6.53;;;22.70;74.20;;;;;;5041850;28;20532;-73
2022/06/04 10:24:51;;;;;;;5.25;4.32;;;22.30;76.60;;;;;;5040419;28;20096;-76
2022/06/04 10:27:40;;;;;;;6.38;5.47;;;22.10;79.60;;;;;;5040817;28;20068;-75
2022/06/04 10:30:23;;;;;;;7.15;5.25;;;22.00;84.50;;;;;;5040546;28;20045;-74
2022/06/04 10:33:05;;;;;;;7.07;5.15;;;21.80;86.90;;;;;;5024551;28;20029;-76
2022/06/04 10:35:48;;;;;;;7.55;4.88;;;21.50;90.10;;;;;;5040464;28;20053;-76
2022/06/04 10:38:26;;;;;;;5.03;4.30;;;21.60;91.30;;;;;;5040057;28;20053;-74
2022/06/04 10:41:13;;;;;;;5.20;4.15;;;21.70;91.60;;;;;;5040617;28;20120;-73
2022/06/04 10:44:17;;;;;;;5.63;4.00;;;21.70;92.00;;;;;;5037906;28;20052;-76
2022/06/04 10:46:54;;;;;;;4.88;4.30;;;22.00;91.90;;;;;;5038449;28;20041;-73
2022/06/04 10:49:36;;;;;;;4.68;4.32;;;22.00;92.60;;;;;;5037980;28;20040;-74
2022/06/04 10:52:19;;;;;;;9.15;5.22;;;21.70;93.20;;;;;;5039048;28;20053;-74
2022/06/04 10:54:49;;;;;;;;;;;21.40;95.30;;;;;;5040411;28;20068;-73
2022/06/04 10:57:23;;;;;;;6.72;6.03;;;20.90;97.70;;;;;;5042170;28;20363;-73
2022/06/04 10:59:55;;;;;;;6.82;6.10;;;20.50;99.90;;;;;;5040359;28;20051;-73
2022/06/04 11:02:26;;;;;;;;;;;20.30;99.90;;;;;;5040480;28;20425;-74
2022/06/04 11:04:58;;;;;;;6.85;6.20;;;20.30;99.90;;;;;;5030842;28;19931;-74
2022/06/04 11:07:36;;;;;;;7.30;6.65;;;20.30;99.90;;;;;;5037078;28;20103;-75
2022/06/04 11:10:08;;;;;;;10.98;6.82;;;20.60;99.90;;;;;;5039975;28;20071;-75
2022/06/04 11:12:43;;;;;;;7.70;6.67;;;20.90;99.90;;;;;;5040652;28;20053;-77
2022/06/04 11:15:17;;;;;;;7.25;6.55;;;21.30;99.90;;;;;;5041352;28;20481;-76
2022/06/04 11:17:49;;;;;;;8.10;5.38;;;22.30;99.90;;;;;;5039491;28;20505;-75
2022/06/04 11:20:20;;;;;;;6.10;5.50;;;23.30;95.50;;;;;;5040296;28;20048;-76
2022/06/04 11:22:54;;;;;;;8.35;6.20;;;24.40;88.30;;;;;;5022736;28;20045;-75
2022/06/04 11:25:27;;;;;;;8.45;5.85;;;24.70;82.30;;;;;;5036733;28;20157;-75
2022/06/04 11:27:55;;;;;;;;;;;25.20;83.50;;;;;;5040114;28;20104;-75
2022/06/04 11:30:30;;;;;;;6.30;5.80;;;25.80;79.90;;;;;;5040399;28;19925;-75
2022/06/04 11:33:09;;;;;;;11.32;6.63;;;25.40;78.00;;;;;;5040086;28;20141;-74
2022/06/04 11:35:46;;;;;;;7.20;6.07;;;24.70;77.90;;;;;;5040587;28;20092;-73
2022/06/04 11:38:35;;;;;;;6.82;6.20;;;24.20;81.50;;;;;;5040551;28;20072;-73
2022/06/04 11:41:21;;;;;;;9.10;7.18;;;23.80;84.60;;;;;;5042305;28;20049;-73
2022/06/04 11:44:23;;;;;;;8.18;6.53;;;23.40;86.70;;;;;;5022139;28;20044;-74
2022/06/04 11:47:11;;;;;;;6.78;6.18;;;23.10;90.80;;;;;;5039932;28;20148;-74
2022/06/04 11:49:47;;;;;;;6.95;6.20;;;23.00;92.10;;;;;;5040310;28;20570;-76
2022/06/04 11:52:22;;;;;;;7.65;6.93;;;23.30;91.30;;;;;;5039170;28;20409;-74
2022/06/04 11:55:01;;;;;;;9.05;6.70;;;23.40;91.30;;;;;;5040722;28;20056;-73
2022/06/04 11:57:36;;;;;;;8.15;7.28;;;23.00;92.90;;;;;;5039378;28;20048;-74
2022/06/04 12:00:19;;;;;;;8.55;6.70;;;22.60;93.00;;;;;;5039499;28;20105;-74
2022/06/04 12:02:55;;;;;;;7.65;5.97;;;22.20;95.20;;;;;;5038796;28;20071;-74
2022/06/04 12:05:42;;;;;;;9.20;6.20;;;22.30;98.20;;;;;;5039356;28;20502;-74
2022/06/04 12:08:12;;;;;;;7.35;6.60;;;22.60;97.50;;;;;;5040329;28;20092;-74
2022/06/04 12:11:14;;;;;;;8.70;6.80;;;22.20;96.80;;;;;;5022403;28;20505;-74
2022/06/04 12:13:54;;;;;;;8.48;7.57;;;21.80;97.60;;;;;;5040036;28;20106;-75
2022/06/04 12:16:27;;;;;;;11.40;7.57;;;21.80;99.90;;;;;;5038180;28;20045;-75
2022/06/04 12:18:58;;;;;;;8.63;7.63;;;22.20;99.30;;;;;;5040681;28;20049;-74
2022/06/04 12:24:34;;;;;;;10.27;6.72;;;22.70;97.50;;;;;;5039744;28;20524;-73
2022/06/04 12:27:23;;;;;;;8.13;7.30;;;22.70;96.20;;;;;;5039556;28;20494;-73
2022/06/04 12:29:52;;;;;;;10.73;6.80;;;22.90;97.00;;;;;;5036848;28;20048;-72
2022/06/04 12:32:28;;;;;;;10.32;6.68;;;22.90;94.70;;;;;;5038718;28;20067;-75
2022/06/04 12:35:19;;;;;;;7.55;6.32;;;24.00;93.20;;;;;;5039103;28;20048;-76
2022/06/04 12:37:54;;;;;;;7.32;6.63;;;25.90;80.40;;;;;;5039357;28;20444;-78
2022/06/04 12:40:37;;;;;;;7.10;6.50;;;26.30;74.10;;;;;;5040416;28;20052;-75
2022/06/04 12:43:25;;;;;;;8.15;7.22;;;25.70;72.60;;;;;;5038954;28;20103;-75
2022/06/04 12:46:09;;;;;;;8.32;6.70;;;25.20;76.00;;;;;;5037847;28;20049;-79
2022/06/04 12:48:51;;;;;;;7.35;6.68;;;26.70;72.20;;;;;;4996468;28;20052;-75
2022/06/04 12:51:28;;;;;;;10.55;7.30;;;28.40;65.10;;;;;;5050324;28;20520;-72
2022/06/04 12:54:04;;;;;;;10.25;6.30;;;30.00;58.90;;;;;;5036198;28;20127;-75
2022/06/04 12:56:39;;;;;;;7.03;6.18;;;31.00;57.40;;;;;;5037889;28;20519;-77
2022/06/04 12:59:27;;;;;;;9.82;6.93;;;30.30;56.20;;;;;;5037474;28;20053;-76
2022/06/04 13:01:54;;;;;;;11.02;7.43;;;30.00;57.90;;;;;;5037580;28;20045;-76
2022/06/04 13:04:25;;;;;;;8.60;7.43;;;29.90;56.40;;;;;;5039041;28;20135;-77
2022/06/04 13:06:57;;;;;;;7.43;6.55;;;29.40;57.80;;;;;;5036937;28;20059;-77
2022/06/04 13:09:57;;;;;;;11.27;6.25;;;29.60;58.00;;;;;;5036707;28;20072;-78
2022/06/04 13:12:35;;;;;;;7.10;6.40;;;29.50;56.20;;;;;;5024897;28;20492;-75
2022/06/04 13:15:18;;;;;;;7.20;6.20;;;28.30;59.30;;;;;;5043329;28;20050;-76
2022/06/04 13:17:50;;;;;;;6.80;6.20;;;29.40;59.30;;;;;;5042384;28;20524;-76
2022/06/04 13:20:25;;;;;;;;;;;28.90;57.80;;;;;;5039981;28;20060;-75
2022/06/04 13:22:56;;;;;;;7.50;6.75;;;27.50;60.60;;;;;;5042253;28;19948;-75
2022/06/04 13:25:29;;;;;;;7.63;7.00;;;27.10;62.60;;;;;;5040788;28;20053;-75
2022/06/04 13:27:56;;;;;;;8.45;7.00;;;27.60;62.80;;;;;;5042418;28;20067;-76